Main page
METAR-TAF:

METAR-TAF

Airports :

Aalborg Airport

Aalborg, Denmark

latitude: 57-06N, longitude: 009-51E, elevation: 3 m

Current weather observation

The report was made 5 minutes ago, at 10:20 UTC
Wind 3 kt from the South
Temperature 18°C
Humidity 64%
Pressure 1014 hPa
Visibility 10 km or more

METAR: EKYT 121020Z AUTO 17003KT 9999 OVC036/// 18/11 Q1014

Time: 12:25 (10:25 UTC)

Forecast

The report was made 2 hours and 15 minutes ago, at 08:10 UTC
Forecast valid from 12 at 09 UTC to 13 at 09 UTC
Wind 5 kt from the South/Southeast
Visibility 10 km or more
Broken clouds at a height of 1500 ft
Becoming
from 12 at 12 UTC to 12 at 15 UTC
Wind 8 kt from the East
Temporary
from 13 at 00 UTC to 13 at 09 UTC
Visibility: 4000 m
Scattered clouds at a height of 5000 ft, Cumulonimbus.
rain showers,

TAF: EKYT 120810Z 1209/1309 16005KT 9999 BKN015 BECMG 1212/1215 08008KT TEMPO 1300/1309 4000 SHRA SCT050CB

Weather observations and forecasts of more than 4000 airports (METAR and TAF reports).

The available stations are represented by yellow and red dots on the map.

Hover mouse over dot to see the name of the station.

Then click to see weather observations and forecasts.

To change the map : click on the green buttons with a black cross to zoom in, on the green button with a dash to zoom out, or on the green arrows for adjacent maps.


METAR-TAF: